This is the latest recevied weather packets stored in our database for station/object W7JFO-3. If no packets are shown the sender has not sent any weather packets the latest 10 day(s).
| Time | Temp. | Humidity | Pressure | Rain* | Wind** | Luminosity | Snow |
|---|---|---|---|---|---|---|---|
| 1777554116 | 3.89° C | 68% | 1022.2 hPa | 0 mm | - | 58 W/m² | - |
| 1777553216 | 3.89° C | 70% | 1022.2 hPa | 0 mm | - | 28 W/m² | - |
| 1777552316 | 3.89° C | 69% | 1022.1 hPa | 0 mm | - | 7 W/m² | - |
| 1777551416 | 3.89° C | 69% | 1022 hPa | 0 mm | - | 0 W/m² | - |
| 1777550516 | 3.89° C | 69% | 1022 hPa | 0 mm | - | 0 W/m² | - |
| 1777549616 | 3.89° C | 68% | 1022 hPa | 0 mm | - | 0 W/m² | - |
| 1777548716 | 3.89° C | 69% | 1022.1 hPa | 0 mm | - | 0 W/m² | - |
| 1777547816 | 3.89° C | 70% | 1022.1 hPa | 0 mm | - | 0 W/m² | - |
| 1777546916 | 3.89° C | 69% | 1022 hPa | 0 mm | - | 0 W/m² | - |
| 1777546016 | 4.44° C | 68% | 1021.9 hPa | 0 mm | - | 0 W/m² | - |
| 1777545116 | 5° C | 65% | 1021.8 hPa | 0 mm | - | 0 W/m² | - |
| 1777544216 | 5° C | 63% | 1021.8 hPa | 0 mm | - | 0 W/m² | - |
| 1777543316 | 5.56° C | 61% | 1021.7 hPa | 0 mm | - | 0 W/m² | - |
| 1777542416 | 5.56° C | 59% | 1021.7 hPa | 0 mm | - | 0 W/m² | - |
| 1777541516 | 6.11° C | 56% | 1021.7 hPa | 0 mm | - | 0 W/m² | - |
| 1777540616 | 6.11° C | 59% | 1021.6 hPa | 0 mm | - | 0 W/m² | - |
| 1777539716 | 6.67° C | 58% | 1021.4 hPa | 0 mm | - | 0 W/m² | - |
| 1777538816 | 7.22° C | 56% | 1021.5 hPa | 0 mm | - | 0 W/m² | - |
| 1777537916 | 8.33° C | 51% | 1021.4 hPa | 0 mm | - | 0 W/m² | - |
| 1777537016 | 8.33° C | 51% | 1021.4 hPa | 0 mm | - | 0 W/m² | - |
| 1777536116 | 7.78° C | 49% | 1021.5 hPa | 0 mm | - | 0 W/m² | - |
| 1777535216 | 8.33° C | 48% | 1021.4 hPa | 0 mm | - | 0 W/m² | - |
| 1777534316 | 8.33° C | 46% | 1021.4 hPa | 0 mm | - | 0 W/m² | - |
| 1777533416 | 10° C | 43% | 1021.3 hPa | 0 mm | - | 0 W/m² | - |
| 1777532516 | 10° C | 42% | 1021.2 hPa | 0 mm | - | 0 W/m² | - |
* Rain latest hour (hover to see other rain measurements)
** Current wind speed in m/s (hover to see current wind gust speed)